createdAt,value
2018-09-03T00:02:27.259Z,16.19
2018-09-03T00:04:55.061Z,16.10
2018-09-03T00:07:22.867Z,16.08
2018-09-03T00:09:50.715Z,16.03
2018-09-03T00:12:18.528Z,16.04
2018-09-03T00:14:46.344Z,15.96
2018-09-03T00:17:14.147Z,15.95
2018-09-03T00:19:41.876Z,15.91
2018-09-03T00:22:09.724Z,15.91
2018-09-03T00:24:37.547Z,15.90
2018-09-03T00:27:05.307Z,15.91
2018-09-03T00:29:33.198Z,15.96
2018-09-03T00:32:06.831Z,15.97
2018-09-03T00:34:40.447Z,16.01
2018-09-03T00:37:14.019Z,16.00
2018-09-03T00:39:47.499Z,15.97
2018-09-03T00:42:21.023Z,16.02
2018-09-03T00:44:54.668Z,16.04
2018-09-03T00:47:22.512Z,16.08
2018-09-03T00:49:50.483Z,16.08
2018-09-03T00:52:18.330Z,16.14
2018-09-03T00:54:46.201Z,16.15
2018-09-03T00:57:13.927Z,16.11
2018-09-03T00:59:41.742Z,16.16
2018-09-03T01:02:09.637Z,16.11
2018-09-03T01:04:37.410Z,16.11
2018-09-03T01:07:05.340Z,16.15
2018-09-03T01:09:33.168Z,16.18
2018-09-03T01:12:01.023Z,16.15
2018-09-03T01:14:28.886Z,16.15
2018-09-03T01:16:56.670Z,16.21
2018-09-03T01:19:24.495Z,16.22
2018-09-03T01:21:52.340Z,16.22
2018-09-03T01:24:20.180Z,16.21
2018-09-03T01:26:47.988Z,16.24
2018-09-03T01:29:15.814Z,16.21
2018-09-03T01:31:43.603Z,16.23
2018-09-03T01:34:11.464Z,16.19
2018-09-03T01:36:39.349Z,16.21
2018-09-03T01:39:08.252Z,16.23
2018-09-03T01:41:36.047Z,16.20
2018-09-03T01:44:03.892Z,16.24
2018-09-03T01:46:31.741Z,16.22
2018-09-03T01:48:59.588Z,16.23
2018-09-03T01:51:27.348Z,16.24
2018-09-03T01:53:55.147Z,16.23
2018-09-03T01:56:23.000Z,16.21
2018-09-03T01:58:50.748Z,16.25
2018-09-03T02:01:18.523Z,16.24
2018-09-03T02:03:46.355Z,16.29
2018-09-03T02:06:14.147Z,16.30
2018-09-03T02:08:42.016Z,16.23
2018-09-03T02:11:09.847Z,16.22
2018-09-03T02:13:37.746Z,16.23
2018-09-03T02:16:05.470Z,16.19
2018-09-03T02:18:33.283Z,16.20
2018-09-03T02:21:01.123Z,16.23
2018-09-03T02:23:28.925Z,16.22
2018-09-03T02:25:56.787Z,16.18
2018-09-03T02:28:24.635Z,16.15
2018-09-03T02:30:52.442Z,16.22
2018-09-03T02:33:20.227Z,16.18
2018-09-03T02:35:48.054Z,16.17
2018-09-03T02:38:15.835Z,16.13
2018-09-03T02:40:43.664Z,16.09
2018-09-03T02:43:11.510Z,16.14
2018-09-03T02:45:39.321Z,16.05
2018-09-03T02:48:07.215Z,16.13
2018-09-03T02:50:35.179Z,15.99
2018-09-03T02:53:03.020Z,15.95
2018-09-03T02:55:30.787Z,16.03
2018-09-03T02:57:58.543Z,15.94
2018-09-03T03:00:27.084Z,15.93
2018-09-03T03:02:56.584Z,15.91
2018-09-03T03:05:24.851Z,15.88
2018-09-03T03:07:52.705Z,15.87
2018-09-03T03:10:20.547Z,15.84
2018-09-03T03:12:48.496Z,15.79
2018-09-03T03:15:16.355Z,15.79
2018-09-03T03:17:44.211Z,15.80
2018-09-03T03:20:12.063Z,15.76
2018-09-03T03:22:39.849Z,15.69
2018-09-03T03:25:07.703Z,15.72
2018-09-03T03:27:35.558Z,15.66
2018-09-03T03:30:03.444Z,15.66
2018-09-03T03:32:31.191Z,15.70
2018-09-03T03:34:58.998Z,15.63
2018-09-03T03:37:26.873Z,15.59
2018-09-03T03:39:54.584Z,15.60
2018-09-03T03:42:22.452Z,15.63
2018-09-03T03:44:50.267Z,15.57
2018-09-03T03:47:18.084Z,15.58
2018-09-03T03:49:45.947Z,15.53
2018-09-03T03:52:13.724Z,15.53
2018-09-03T03:54:41.543Z,15.51
2018-09-03T03:57:09.340Z,15.55
2018-09-03T03:59:37.110Z,15.57
2018-09-03T04:02:05.212Z,15.51
2018-09-03T04:04:33.051Z,15.53
2018-09-03T04:07:00.897Z,15.50
2018-09-03T04:09:28.752Z,15.47
2018-09-03T04:11:56.497Z,15.48
2018-09-03T04:14:24.325Z,15.48
2018-09-03T04:16:52.124Z,15.50
2018-09-03T04:19:19.972Z,15.48
2018-09-03T04:21:47.828Z,15.48
2018-09-03T04:24:15.576Z,15.50
2018-09-03T04:26:43.357Z,15.46
2018-09-03T04:29:11.298Z,15.46
2018-09-03T04:31:39.107Z,15.49
2018-09-03T04:34:06.885Z,15.50
2018-09-03T04:36:34.655Z,15.49
2018-09-03T04:39:03.690Z,15.48
2018-09-03T04:41:31.403Z,15.46
2018-09-03T04:43:59.275Z,15.47
2018-09-03T04:46:27.159Z,15.47
2018-09-03T04:48:54.987Z,15.48
2018-09-03T04:51:22.811Z,15.48
2018-09-03T04:53:50.597Z,15.47
2018-09-03T04:56:18.388Z,15.50
2018-09-03T04:58:46.229Z,15.50
2018-09-03T05:01:14.027Z,15.48
2018-09-03T05:03:41.924Z,15.50
2018-09-03T05:06:10.010Z,15.48
2018-09-03T05:08:37.787Z,15.49
2018-09-03T05:11:05.584Z,15.49
2018-09-03T05:13:33.418Z,15.54
2018-09-03T05:16:01.252Z,15.53
2018-09-03T05:18:29.105Z,15.55
2018-09-03T05:20:56.855Z,15.56
2018-09-03T05:23:24.664Z,15.57
2018-09-03T05:25:52.470Z,15.59
2018-09-03T05:28:20.200Z,15.61
2018-09-03T05:30:48.186Z,15.60
2018-09-03T05:33:15.982Z,15.62
2018-09-03T05:35:43.810Z,15.67
2018-09-03T05:38:11.684Z,15.66
2018-09-03T05:40:39.627Z,15.67
2018-09-03T05:43:07.509Z,15.67
2018-09-03T05:45:35.347Z,15.71
2018-09-03T05:48:04.383Z,15.72
2018-09-03T05:50:32.242Z,15.72
2018-09-03T05:53:00.067Z,15.75
2018-09-03T05:55:27.979Z,15.77
2018-09-03T05:57:55.799Z,15.79
2018-09-03T06:00:23.670Z,15.79
2018-09-03T06:02:51.531Z,15.83
2018-09-03T06:05:19.423Z,15.83
2018-09-03T06:07:47.409Z,15.88
2018-09-03T06:10:15.239Z,15.92
2018-09-03T06:12:43.374Z,15.94
2018-09-03T06:15:11.566Z,15.99
2018-09-03T06:17:39.851Z,15.99
2018-09-03T06:20:07.688Z,16.04
2018-09-03T06:22:35.667Z,16.08
2018-09-03T06:25:03.730Z,16.13
2018-09-03T06:27:31.582Z,16.15
2018-09-03T06:29:59.584Z,16.19
2018-09-03T06:32:27.463Z,16.25
2018-09-03T06:34:55.283Z,16.35
2018-09-03T06:37:23.064Z,16.40
2018-09-03T06:39:50.875Z,16.46
2018-09-03T06:42:18.727Z,16.49
2018-09-03T06:44:46.535Z,16.53
2018-09-03T06:47:14.517Z,16.59
2018-09-03T06:49:42.395Z,16.60
2018-09-03T06:52:10.232Z,16.56
2018-09-03T06:54:38.112Z,16.63
2018-09-03T06:57:06.548Z,16.62
2018-09-03T06:59:34.427Z,16.70
2018-09-03T07:02:02.291Z,16.76
2018-09-03T07:04:30.123Z,16.84
2018-09-03T07:06:58.128Z,16.88
2018-09-03T07:09:26.012Z,16.92
2018-09-03T07:11:53.793Z,17.00
2018-09-03T07:14:21.668Z,17.05
2018-09-03T07:16:49.505Z,17.12
2018-09-03T07:19:17.303Z,17.17
2018-09-03T07:21:45.137Z,17.16
2018-09-03T07:24:12.933Z,17.20
2018-09-03T07:26:40.790Z,17.27
2018-09-03T07:29:08.643Z,17.27
2018-09-03T07:31:36.521Z,17.35
2018-09-03T07:34:04.320Z,17.38
2018-09-03T07:36:32.199Z,17.36
2018-09-03T07:39:00.036Z,17.40
2018-09-03T07:41:27.888Z,17.44
2018-09-03T07:43:55.744Z,17.52
2018-09-03T07:46:23.602Z,17.58
2018-09-03T07:48:51.438Z,17.61
2018-09-03T07:51:19.263Z,17.71
2018-09-03T07:53:47.095Z,17.79
2018-09-03T07:56:14.995Z,17.86
2018-09-03T07:58:42.844Z,17.91
2018-09-03T08:01:10.694Z,17.97
2018-09-03T08:03:38.476Z,17.92
2018-09-03T08:06:06.361Z,18.12
2018-09-03T08:08:34.193Z,18.16
2018-09-03T08:11:01.999Z,18.26
2018-09-03T08:13:35.832Z,18.29
2018-09-03T08:16:04.243Z,18.39
2018-09-03T08:18:32.037Z,18.43
2018-09-03T08:20:59.844Z,18.46
2018-09-03T08:23:27.707Z,18.55
2018-09-03T08:25:55.512Z,18.61
2018-09-03T08:28:23.420Z,18.67
2018-09-03T08:30:51.216Z,18.70
2018-09-03T08:33:18.992Z,18.81
2018-09-03T08:35:46.864Z,18.83
2018-09-03T08:38:14.644Z,18.81
2018-09-03T08:40:42.527Z,18.94
2018-09-03T08:43:10.360Z,19.00
2018-09-03T08:45:38.224Z,19.06
2018-09-03T08:48:06.029Z,19.12
2018-09-03T08:50:33.872Z,19.23
2018-09-03T08:53:01.715Z,19.28
2018-09-03T08:55:29.524Z,19.30
2018-09-03T08:57:57.386Z,19.42
2018-09-03T09:00:25.192Z,19.54
2018-09-03T09:02:53.060Z,19.68
2018-09-03T09:05:20.885Z,19.96
2018-09-03T09:07:48.697Z,19.94
2018-09-03T09:10:16.512Z,20.14
2018-09-03T09:12:44.335Z,20.30
2018-09-03T09:15:12.204Z,20.39
2018-09-03T09:17:40.453Z,20.43
2018-09-03T09:20:08.537Z,20.57
2018-09-03T09:22:36.406Z,20.55
2018-09-03T09:25:04.470Z,20.70
2018-09-03T09:27:32.314Z,20.87
2018-09-03T09:30:00.131Z,20.89
2018-09-03T09:32:27.928Z,21.17
2018-09-03T09:34:55.723Z,21.23
2018-09-03T09:37:23.507Z,21.41
2018-09-03T09:39:51.312Z,21.36
2018-09-03T09:42:19.107Z,21.40
2018-09-03T09:44:46.968Z,21.55
2018-09-03T09:47:14.861Z,21.61
2018-09-03T09:49:43.496Z,21.69
2018-09-03T09:52:11.307Z,21.64
2018-09-03T09:54:39.291Z,21.73
2018-09-03T09:57:07.051Z,21.86
2018-09-03T09:59:34.831Z,21.94
2018-09-03T10:02:03.343Z,22.00
2018-09-03T10:04:31.193Z,22.04
2018-09-03T10:06:58.999Z,22.06
2018-09-03T10:09:26.803Z,22.05
2018-09-03T10:11:54.632Z,22.09
2018-09-03T10:14:22.457Z,22.01
2018-09-03T10:16:50.323Z,22.07
2018-09-03T10:19:18.103Z,22.13
2018-09-03T10:21:45.875Z,22.11
2018-09-03T10:24:13.711Z,22.17
2018-09-03T10:26:41.844Z,22.22
2018-09-03T10:29:09.632Z,22.10
2018-09-03T10:31:37.457Z,22.25
2018-09-03T10:34:05.561Z,22.27
2018-09-03T10:36:33.415Z,22.24
2018-09-03T10:39:01.243Z,22.20
2018-09-03T10:41:29.040Z,22.34
2018-09-03T10:43:56.852Z,22.53
2018-09-03T10:46:24.751Z,22.64
2018-09-03T10:48:52.570Z,22.76
2018-09-03T10:51:20.351Z,22.90
2018-09-03T10:53:48.128Z,23.13
2018-09-03T10:56:15.976Z,23.27
2018-09-03T10:58:43.737Z,23.56
2018-09-03T11:01:11.553Z,23.80
2018-09-03T11:03:39.323Z,24.12
2018-09-03T11:06:07.139Z,24.32
2018-09-03T11:08:35.104Z,24.31
2018-09-03T11:11:02.899Z,24.56
2018-09-03T11:13:30.850Z,24.63
2018-09-03T11:15:58.733Z,24.77
2018-09-03T11:18:27.928Z,24.87
2018-09-03T11:20:55.706Z,24.98
2018-09-03T11:23:23.557Z,24.93
2018-09-03T11:25:51.376Z,25.17
2018-09-03T11:28:19.168Z,25.18
2018-09-03T11:30:46.990Z,25.11
2018-09-03T11:33:14.842Z,25.10
2018-09-03T11:35:42.926Z,24.98
2018-09-03T11:38:10.695Z,24.90
2018-09-03T11:40:38.485Z,25.03
2018-09-03T11:43:06.388Z,24.99
2018-09-03T11:45:34.171Z,24.86
2018-09-03T11:48:02.080Z,24.76
2018-09-03T11:50:29.911Z,24.84
2018-09-03T11:52:57.710Z,24.72
2018-09-03T11:55:25.461Z,24.56
2018-09-03T11:57:53.277Z,24.59
2018-09-03T12:00:25.194Z,24.69
2018-09-03T12:02:52.987Z,24.76
2018-09-03T12:05:20.776Z,24.92
2018-09-03T12:07:48.687Z,25.17
2018-09-03T12:10:16.438Z,25.38
2018-09-03T12:12:44.224Z,25.43
2018-09-03T12:16:17.326Z,25.17
2018-09-03T12:18:45.665Z,25.47
2018-09-03T12:21:14.202Z,25.59
2018-09-03T12:23:42.691Z,25.61
2018-09-03T12:26:10.672Z,25.66
2018-09-03T12:28:38.497Z,25.64
2018-09-03T12:31:06.760Z,25.41
2018-09-03T12:33:34.515Z,25.44
2018-09-03T12:36:02.784Z,25.15
2018-09-03T12:38:30.739Z,24.89
2018-09-03T12:40:58.568Z,25.00
2018-09-03T12:43:26.561Z,24.88
2018-09-03T12:46:00.740Z,24.77
2018-09-03T12:48:29.715Z,24.82
2018-09-03T12:50:57.848Z,24.80
2018-09-03T12:53:25.602Z,24.75
2018-09-03T12:55:53.435Z,24.77
2018-09-03T12:58:21.269Z,24.62
2018-09-03T13:00:49.134Z,24.67
2018-09-03T13:03:16.954Z,24.65
2018-09-03T13:05:44.748Z,24.47
2018-09-03T13:08:12.528Z,24.65
2018-09-03T13:10:40.343Z,24.51
2018-09-03T13:13:08.191Z,24.57
2018-09-03T13:15:35.955Z,24.69
2018-09-03T13:18:10.408Z,24.76
2018-09-03T13:20:38.181Z,24.75
2018-09-03T13:23:06.003Z,24.73
2018-09-03T13:25:33.795Z,24.79
2018-09-03T13:28:01.613Z,24.77
2018-09-03T13:30:29.452Z,24.63
2018-09-03T13:32:57.271Z,24.68
2018-09-03T13:35:25.414Z,24.80
2018-09-03T13:37:53.251Z,24.61
2018-09-03T13:40:21.071Z,24.64
2018-09-03T13:42:48.831Z,24.80
2018-09-03T13:45:16.594Z,24.78
2018-09-03T13:47:44.445Z,24.59
2018-09-03T13:50:12.167Z,24.48
2018-09-03T13:52:39.991Z,24.62
2018-09-03T13:55:07.867Z,24.61
2018-09-03T13:57:35.604Z,24.69
2018-09-03T14:00:03.720Z,24.72
2018-09-03T14:02:31.590Z,24.80
2018-09-03T14:04:59.462Z,24.76
2018-09-03T14:07:27.307Z,24.70
2018-09-03T14:09:55.153Z,24.88
2018-09-03T14:12:23.014Z,24.86
2018-09-03T14:14:50.755Z,24.95
2018-09-03T14:17:18.623Z,25.06
2018-09-03T14:19:46.448Z,25.18
2018-09-03T14:22:14.372Z,25.25
2018-09-03T14:24:42.072Z,25.37
2018-09-03T14:27:09.887Z,25.42
2018-09-03T14:29:37.758Z,25.28
2018-09-03T14:32:05.645Z,25.34
2018-09-03T14:34:33.385Z,25.27
2018-09-03T14:37:01.219Z,25.13
2018-09-03T14:39:28.915Z,24.97
2018-09-03T14:41:56.775Z,24.85
2018-09-03T14:44:24.588Z,24.87
2018-09-03T14:46:52.359Z,24.83
2018-09-03T14:49:20.201Z,24.80
2018-09-03T14:51:48.007Z,24.76
2018-09-03T14:54:15.785Z,24.68
2018-09-03T14:56:43.689Z,24.59
2018-09-03T14:59:11.529Z,24.36
2018-09-03T15:01:39.320Z,24.33
2018-09-03T15:04:07.216Z,24.52
2018-09-03T15:06:35.008Z,24.54
2018-09-03T15:09:04.471Z,24.64
2018-09-03T15:11:32.195Z,24.61
2018-09-03T15:14:00.496Z,24.68
2018-09-03T15:16:30.625Z,24.53
2018-09-03T15:18:59.283Z,24.51
2018-09-03T15:21:27.127Z,24.62
2018-09-03T15:23:54.959Z,24.57
2018-09-03T15:26:22.777Z,24.51
2018-09-03T15:28:50.581Z,24.34
2018-09-03T15:31:18.474Z,24.55
2018-09-03T15:33:46.358Z,24.57
2018-09-03T15:36:14.203Z,24.51
2018-09-03T15:38:42.064Z,24.42
2018-09-03T15:41:09.920Z,24.48
2018-09-03T15:43:37.755Z,24.57
2018-09-03T15:46:06.715Z,24.31
2018-09-03T15:48:34.625Z,24.44
2018-09-03T15:51:02.776Z,24.35
2018-09-03T15:53:30.632Z,24.34
2018-09-03T15:55:59.921Z,24.31
2018-09-03T15:58:27.719Z,24.24
2018-09-03T16:00:55.619Z,24.27
2018-09-03T16:03:23.463Z,24.11
2018-09-03T16:05:51.258Z,24.04
2018-09-03T16:08:19.125Z,24.05
2018-09-03T16:10:46.887Z,23.83
2018-09-03T16:13:14.668Z,23.91
2018-09-03T16:15:42.496Z,23.85
2018-09-03T16:18:10.298Z,23.78
2018-09-03T16:20:38.135Z,23.78
2018-09-03T16:23:06.443Z,23.65
2018-09-03T16:25:43.127Z,23.44
2018-09-03T16:28:11.272Z,23.39
2018-09-03T16:30:39.048Z,23.42
2018-09-03T16:33:06.860Z,23.33
2018-09-03T16:35:34.691Z,23.32
2018-09-03T16:38:02.525Z,23.21
2018-09-03T16:40:30.293Z,23.21
2018-09-03T16:42:58.085Z,22.99
2018-09-03T16:45:25.915Z,23.05
2018-09-03T16:47:53.727Z,23.01
2018-09-03T16:50:21.607Z,22.78
2018-09-03T16:52:50.227Z,22.68
2018-09-03T16:55:18.885Z,22.58
2018-09-03T16:57:46.678Z,22.56
2018-09-03T17:00:15.193Z,22.57
2018-09-03T17:02:43.428Z,22.52
2018-09-03T17:05:12.461Z,22.51
2018-09-03T17:07:41.313Z,22.39
2018-09-03T17:10:09.295Z,22.19
2018-09-03T17:12:38.294Z,22.16
2018-09-03T17:15:06.290Z,22.16
2018-09-03T17:17:34.127Z,22.17
2018-09-03T17:20:02.584Z,22.03
2018-09-03T17:22:30.527Z,21.93
2018-09-03T17:24:59.267Z,21.85
2018-09-03T17:27:27.544Z,21.80
2018-09-03T17:29:56.616Z,21.71
2018-09-03T17:32:24.647Z,21.62
2018-09-03T17:34:52.911Z,21.66
2018-09-03T17:37:21.307Z,21.55
2018-09-03T17:39:50.279Z,21.52
2018-09-03T17:42:18.735Z,21.51
2018-09-03T17:44:47.124Z,21.47
2018-09-03T17:47:15.762Z,21.43
2018-09-03T17:49:44.710Z,21.35
2018-09-03T17:52:12.624Z,21.29
2018-09-03T17:54:40.383Z,21.37
2018-09-03T17:57:08.182Z,21.33
2018-09-03T17:59:35.954Z,21.24
2018-09-03T18:02:03.791Z,21.18
2018-09-03T18:04:31.583Z,21.19
2018-09-03T18:06:59.331Z,21.14
2018-09-03T18:09:27.139Z,21.02
2018-09-03T18:11:55.000Z,21.02
2018-09-03T18:14:22.874Z,20.95
2018-09-03T18:16:50.639Z,20.96
2018-09-03T18:19:18.632Z,20.93
2018-09-03T18:21:46.452Z,20.87
2018-09-03T18:24:14.224Z,20.89
2018-09-03T18:26:42.139Z,20.83
2018-09-03T18:29:09.976Z,20.72
2018-09-03T18:31:37.836Z,20.81
2018-09-03T18:34:07.554Z,20.77
2018-09-03T18:36:35.392Z,20.70
2018-09-03T18:39:04.284Z,20.68
2018-09-03T18:41:32.046Z,20.61
2018-09-03T18:43:59.846Z,20.61
2018-09-03T18:46:27.649Z,20.55
2018-09-03T18:48:55.445Z,20.54
2018-09-03T18:51:23.209Z,20.52
2018-09-03T18:53:51.002Z,20.35
2018-09-03T18:56:18.988Z,20.18
2018-09-03T18:58:46.838Z,20.21
2018-09-03T19:01:14.912Z,20.16
2018-09-03T19:03:42.691Z,20.12
2018-09-03T19:06:11.284Z,19.77
2018-09-03T19:08:40.383Z,19.77
2018-09-03T19:11:08.212Z,19.74
2018-09-03T19:13:36.248Z,19.64
2018-09-03T19:16:04.461Z,19.57
2018-09-03T19:18:32.963Z,19.54
2018-09-03T19:21:01.012Z,19.49
2018-09-03T19:23:36.612Z,19.50
2018-09-03T19:26:04.557Z,19.44
2018-09-03T19:28:32.454Z,19.40
2018-09-03T19:31:09.489Z,19.42
2018-09-03T19:33:37.559Z,19.34
2018-09-03T19:36:05.251Z,19.25
2018-09-03T19:38:33.959Z,19.23
2018-09-03T19:41:04.727Z,19.21
2018-09-03T19:43:36.590Z,19.18
2018-09-03T19:46:07.624Z,19.12
2018-09-03T19:48:36.170Z,19.07
2018-09-03T19:51:04.625Z,19.03
2018-09-03T19:53:32.425Z,18.95
2018-09-03T19:56:00.264Z,18.93
2018-09-03T19:58:28.204Z,18.85
2018-09-03T20:00:56.016Z,18.87
2018-09-03T20:03:23.855Z,18.82
2018-09-03T20:05:51.840Z,18.78
2018-09-03T20:08:21.366Z,18.74
2018-09-03T20:10:49.112Z,18.68
2018-09-03T20:13:17.110Z,18.59
2018-09-03T20:15:44.915Z,18.57
2018-09-03T20:18:12.747Z,18.57
2018-09-03T20:20:40.641Z,18.49
2018-09-03T20:23:08.443Z,18.55
2018-09-03T20:25:36.256Z,18.44
2018-09-03T20:28:04.163Z,18.49
2018-09-03T20:30:32.525Z,18.49
2018-09-03T20:33:06.263Z,18.45
2018-09-03T20:35:35.508Z,18.45
2018-09-03T20:38:04.211Z,18.46
2018-09-03T20:40:32.062Z,18.37
2018-09-03T20:43:06.795Z,18.43
2018-09-03T20:45:34.771Z,18.35
2018-09-03T20:48:02.695Z,18.35
2018-09-03T20:50:30.509Z,18.39
2018-09-03T20:52:58.328Z,18.37
2018-09-03T20:55:26.213Z,18.41
2018-09-03T20:57:54.025Z,18.43
2018-09-03T21:00:21.784Z,18.42
2018-09-03T21:02:49.621Z,18.42
2018-09-03T21:05:17.561Z,18.38
2018-09-03T21:07:45.362Z,18.36
2018-09-03T21:10:13.613Z,18.37
2018-09-03T21:12:42.811Z,18.36
2018-09-03T21:15:10.579Z,18.26
2018-09-03T21:17:38.412Z,18.32
2018-09-03T21:20:06.425Z,18.25
2018-09-03T21:22:34.324Z,18.27
2018-09-03T21:25:02.125Z,18.26
2018-09-03T21:27:29.926Z,18.24
2018-09-03T21:30:00.048Z,18.25
2018-09-03T21:32:27.967Z,18.27
2018-09-03T21:34:55.923Z,18.24
2018-09-03T21:37:23.859Z,18.20
2018-09-03T21:39:51.650Z,18.19
2018-09-03T21:42:19.491Z,18.17
2018-09-03T21:44:47.324Z,18.19
2018-09-03T21:47:15.221Z,18.18
2018-09-03T21:49:43.060Z,18.16
2018-09-03T21:52:10.858Z,18.11
2018-09-03T21:54:38.715Z,18.12
2018-09-03T21:57:06.678Z,18.13
2018-09-03T21:59:34.423Z,18.12
2018-09-03T22:02:02.579Z,18.12
2018-09-03T22:04:30.384Z,18.08
2018-09-03T22:06:58.219Z,18.04
2018-09-03T22:09:26.088Z,18.08
2018-09-03T22:11:53.943Z,18.10
2018-09-03T22:14:21.845Z,18.07
2018-09-03T22:16:50.664Z,18.05
2018-09-03T22:19:18.474Z,18.07
2018-09-03T22:21:46.277Z,18.08
2018-09-03T22:24:14.205Z,18.09
2018-09-03T22:26:42.256Z,18.09
2018-09-03T22:29:10.036Z,18.04
2018-09-03T22:31:37.835Z,18.03
2018-09-03T22:34:05.644Z,18.03
2018-09-03T22:36:33.575Z,18.06
2018-09-03T22:39:01.364Z,17.98
2018-09-03T22:41:29.147Z,17.95
2018-09-03T22:43:57.020Z,17.86
2018-09-03T22:46:24.864Z,17.85
2018-09-03T22:48:52.705Z,17.78
2018-09-03T22:51:20.503Z,17.79
2018-09-03T22:53:48.226Z,17.79
2018-09-03T22:56:15.999Z,17.71
2018-09-03T22:58:43.786Z,17.64
2018-09-03T23:01:11.559Z,17.65
2018-09-03T23:03:39.708Z,17.63
2018-09-03T23:06:07.590Z,17.57
2018-09-03T23:08:35.547Z,17.51
2018-09-03T23:11:03.384Z,17.51
2018-09-03T23:13:31.182Z,17.46
2018-09-03T23:15:58.980Z,17.50
2018-09-03T23:18:26.866Z,17.40
2018-09-03T23:20:54.741Z,17.39
2018-09-03T23:23:22.560Z,17.42
2018-09-03T23:25:50.440Z,17.37
2018-09-03T23:28:18.236Z,17.34
2018-09-03T23:30:46.032Z,17.44
2018-09-03T23:33:13.903Z,17.42
2018-09-03T23:35:41.787Z,17.39
2018-09-03T23:38:09.638Z,17.39
2018-09-03T23:40:37.429Z,17.45
2018-09-03T23:43:05.315Z,17.42
2018-09-03T23:45:33.151Z,17.41
2018-09-03T23:48:01.003Z,17.39
2018-09-03T23:50:28.896Z,17.36
2018-09-03T23:52:57.075Z,17.36
2018-09-03T23:55:24.940Z,17.31
2018-09-03T23:57:52.828Z,17.31
